createdAt,value
2018-12-04T00:02:27.680Z,25.95
2018-12-04T00:04:56.612Z,25.96
2018-12-04T00:07:25.644Z,25.99
2018-12-04T00:09:54.747Z,25.98
2018-12-04T00:12:23.852Z,25.93
2018-12-04T00:14:52.943Z,25.78
2018-12-04T00:17:21.923Z,25.76
2018-12-04T00:19:51.140Z,25.90
2018-12-04T00:22:20.196Z,25.98
2018-12-04T00:24:49.200Z,25.93
2018-12-04T00:27:18.336Z,25.89
2018-12-04T00:29:47.303Z,25.84
2018-12-04T00:32:16.396Z,25.85
2018-12-04T00:34:45.420Z,25.70
2018-12-04T00:37:14.492Z,25.77
2018-12-04T00:39:43.497Z,25.87
2018-12-04T00:42:12.513Z,25.95
2018-12-04T00:44:41.500Z,25.88
2018-12-04T00:47:10.571Z,25.84
2018-12-04T00:49:39.573Z,25.78
2018-12-04T00:52:08.664Z,25.73
2018-12-04T00:54:37.688Z,25.64
2018-12-04T00:57:06.672Z,25.57
2018-12-04T00:59:35.700Z,25.84
2018-12-04T01:02:04.760Z,25.93
2018-12-04T01:04:34.431Z,25.84
2018-12-04T01:07:03.653Z,25.87
2018-12-04T01:09:32.807Z,25.84
2018-12-04T01:12:01.818Z,25.79
2018-12-04T01:14:30.851Z,25.72
2018-12-04T01:16:59.828Z,25.72
2018-12-04T01:19:28.839Z,25.91
2018-12-04T01:21:57.916Z,25.94
2018-12-04T01:24:26.916Z,25.87
2018-12-04T01:26:56.008Z,25.88
2018-12-04T01:29:25.126Z,25.91
2018-12-04T01:31:54.132Z,25.84
2018-12-04T01:34:23.125Z,25.73
2018-12-04T01:36:52.114Z,25.72
2018-12-04T01:39:21.112Z,25.81
2018-12-04T01:41:50.200Z,25.95
2018-12-04T01:44:19.304Z,25.94
2018-12-04T01:46:48.281Z,25.96
2018-12-04T01:49:17.405Z,25.98
2018-12-04T01:51:46.327Z,25.93
2018-12-04T01:54:15.356Z,25.78
2018-12-04T01:56:44.344Z,25.60
2018-12-04T01:59:13.354Z,25.58
2018-12-04T02:01:42.348Z,25.81
2018-12-04T02:04:11.360Z,25.90
2018-12-04T02:06:40.456Z,25.98
2018-12-04T02:09:09.520Z,25.98
2018-12-04T02:11:38.547Z,25.85
2018-12-04T02:14:07.536Z,25.72
2018-12-04T02:16:36.636Z,25.63
2018-12-04T02:19:05.629Z,25.68
2018-12-04T02:21:34.600Z,25.88
2018-12-04T02:24:03.691Z,25.95
2018-12-04T02:26:32.704Z,25.97
2018-12-04T02:29:01.694Z,26.06
2018-12-04T02:31:30.700Z,25.95
2018-12-04T02:33:59.791Z,25.78
2018-12-04T02:36:28.896Z,25.67
2018-12-04T02:38:57.890Z,25.70
2018-12-04T02:41:26.890Z,25.87
2018-12-04T02:43:55.821Z,25.95
2018-12-04T02:46:24.817Z,25.94
2018-12-04T02:48:53.908Z,25.99
2018-12-04T02:51:22.947Z,25.94
2018-12-04T02:53:52.096Z,25.73
2018-12-04T02:56:21.051Z,25.69
2018-12-04T02:58:50.436Z,25.69
2018-12-04T03:01:19.456Z,25.80
2018-12-04T03:03:48.486Z,25.93
2018-12-04T03:06:17.428Z,25.93
2018-12-04T03:08:47.323Z,25.95
2018-12-04T03:11:16.347Z,25.80
2018-12-04T03:13:45.344Z,25.77
2018-12-04T03:16:14.319Z,25.65
2018-12-04T03:18:43.378Z,25.63
2018-12-04T03:21:12.416Z,25.69
2018-12-04T03:23:41.400Z,25.55
2018-12-04T03:26:10.396Z,25.46
2018-12-04T03:28:39.386Z,25.37
2018-12-04T03:31:08.394Z,25.59
2018-12-04T03:33:39.637Z,25.71
2018-12-04T03:36:08.643Z,25.78
2018-12-04T03:38:37.626Z,25.82
2018-12-04T03:41:06.832Z,25.83
2018-12-04T03:43:35.821Z,25.84
2018-12-04T03:46:04.912Z,25.74
2018-12-04T03:48:33.906Z,25.68
2018-12-04T03:51:03.047Z,25.58
2018-12-04T03:53:31.989Z,25.73
2018-12-04T03:56:01.051Z,25.83
2018-12-04T03:58:30.072Z,25.86
2018-12-04T04:00:59.300Z,25.82
2018-12-04T04:03:28.300Z,25.89
2018-12-04T04:05:57.287Z,25.83
2018-12-04T04:08:26.383Z,25.70
2018-12-04T04:10:55.537Z,25.61
2018-12-04T04:13:24.688Z,25.78
2018-12-04T04:15:53.780Z,25.90
2018-12-04T04:18:22.779Z,25.91
2018-12-04T04:20:51.953Z,25.87
2018-12-04T04:23:20.955Z,25.91
2018-12-04T04:25:49.965Z,25.88
2018-12-04T04:28:18.923Z,25.72
2018-12-04T04:30:47.930Z,25.64
2018-12-04T04:33:16.918Z,25.55
2018-12-04T04:35:45.720Z,25.46
2018-12-04T04:38:14.499Z,25.47
2018-12-04T04:40:43.520Z,25.41
2018-12-04T04:43:12.503Z,25.39
2018-12-04T04:45:41.948Z,25.37
2018-12-04T04:48:11.312Z,25.53
2018-12-04T04:50:40.334Z,25.61
2018-12-04T04:53:09.472Z,25.75
2018-12-04T04:55:38.516Z,25.76
2018-12-04T04:58:07.543Z,25.69
2018-12-04T05:00:36.626Z,25.57
2018-12-04T05:03:05.693Z,25.49
2018-12-04T05:05:39.704Z,25.46
2018-12-04T05:08:08.700Z,25.40
2018-12-04T05:10:37.702Z,25.35
2018-12-04T05:13:06.688Z,25.31
2018-12-04T05:15:35.657Z,25.51
2018-12-04T05:18:04.716Z,25.63
2018-12-04T05:20:33.819Z,25.67
2018-12-04T05:23:02.835Z,25.76
2018-12-04T05:25:31.822Z,25.79
2018-12-04T05:28:00.757Z,25.77
2018-12-04T05:30:29.928Z,25.86
2018-12-04T05:32:58.911Z,25.84
2018-12-04T05:35:27.929Z,25.85
2018-12-04T05:37:56.930Z,25.72
2018-12-04T05:40:26.012Z,25.65
2018-12-04T05:42:54.996Z,25.67
2018-12-04T05:45:24.021Z,25.77
2018-12-04T05:47:53.104Z,25.73
2018-12-04T05:50:22.122Z,25.72
2018-12-04T05:53:02.186Z,25.63
2018-12-04T05:55:31.287Z,25.70
2018-12-04T05:58:00.248Z,25.68
2018-12-04T06:00:29.384Z,25.58
2018-12-04T06:02:58.484Z,25.46
2018-12-04T06:05:27.543Z,25.65
2018-12-04T06:07:56.631Z,25.67
2018-12-04T06:10:25.825Z,25.63
2018-12-04T06:12:54.827Z,25.65
2018-12-04T06:15:23.832Z,25.70
2018-12-04T06:17:52.812Z,25.70
2018-12-04T06:20:21.564Z,25.65
2018-12-04T06:22:50.339Z,25.55
2018-12-04T06:25:19.120Z,25.69
2018-12-04T06:27:47.865Z,25.75
2018-12-04T06:30:16.790Z,25.78
2018-12-04T06:32:45.654Z,25.79
2018-12-04T06:35:14.514Z,25.62
2018-12-04T06:37:43.320Z,25.66
2018-12-04T06:40:12.068Z,25.61
2018-12-04T06:42:40.923Z,25.62
2018-12-04T06:45:09.736Z,25.71
2018-12-04T06:47:38.628Z,25.80
2018-12-04T06:50:09.761Z,25.80
2018-12-04T06:52:38.634Z,25.68
2018-12-04T06:55:08.283Z,25.63
2018-12-04T06:57:37.489Z,25.70
2018-12-04T07:00:07.579Z,25.75
2018-12-04T07:02:36.592Z,25.85
2018-12-04T07:05:06.190Z,25.83
2018-12-04T07:07:35.317Z,25.80
2018-12-04T07:10:04.725Z,25.66
2018-12-04T07:12:33.768Z,25.57
2018-12-04T07:15:03.323Z,25.71
2018-12-04T07:17:32.436Z,25.77
2018-12-04T07:20:01.550Z,25.80
2018-12-04T07:22:30.712Z,25.76
2018-12-04T07:24:59.800Z,25.77
2018-12-04T07:27:28.917Z,25.76
2018-12-04T07:29:57.958Z,25.71
2018-12-04T07:32:27.152Z,25.73
2018-12-04T07:34:56.246Z,25.76
2018-12-04T07:37:25.284Z,25.79
2018-12-04T07:39:54.404Z,25.80
2018-12-04T07:42:23.384Z,25.75
2018-12-04T07:44:52.500Z,25.68
2018-12-04T07:47:21.279Z,25.62
2018-12-04T07:49:50.251Z,25.62
2018-12-04T07:52:19.248Z,25.74
2018-12-04T07:54:48.265Z,25.80
2018-12-04T07:57:17.340Z,25.82
2018-12-04T07:59:46.541Z,25.77
2018-12-04T08:02:15.570Z,25.74
2018-12-04T08:04:45.319Z,25.65
2018-12-04T08:07:14.503Z,25.63
2018-12-04T08:09:43.770Z,25.74
2018-12-04T08:12:12.767Z,25.73
2018-12-04T08:14:41.732Z,25.76
2018-12-04T08:17:10.780Z,25.76
2018-12-04T08:19:39.887Z,25.71
2018-12-04T08:22:09.020Z,25.59
2018-12-04T08:24:38.097Z,25.57
2018-12-04T08:27:07.216Z,25.77
2018-12-04T08:29:36.304Z,25.74
2018-12-04T08:32:05.448Z,25.95
2018-12-04T08:34:34.676Z,25.98
2018-12-04T08:37:03.604Z,25.98
2018-12-04T08:39:32.754Z,25.99
2018-12-04T08:42:01.784Z,25.84
2018-12-04T08:44:30.985Z,25.84
2018-12-04T08:47:00.264Z,25.86
2018-12-04T08:49:29.544Z,25.92
2018-12-04T08:51:58.720Z,25.94
2018-12-04T08:54:27.754Z,26.00
2018-12-04T08:56:56.814Z,26.02
2018-12-04T08:59:25.892Z,26.04
2018-12-04T09:01:54.980Z,25.96
2018-12-04T09:04:24.177Z,26.01
2018-12-04T09:06:53.228Z,25.99
2018-12-04T09:09:22.421Z,26.03
2018-12-04T09:11:51.525Z,26.11
2018-12-04T09:14:20.583Z,26.00
2018-12-04T09:16:49.579Z,25.92
2018-12-04T09:19:18.640Z,25.95
2018-12-04T09:21:47.830Z,25.94
2018-12-04T09:24:16.993Z,25.91
2018-12-04T09:26:45.933Z,25.87
2018-12-04T09:29:14.693Z,26.02
2018-12-04T09:31:44.168Z,25.94
2018-12-04T09:34:13.304Z,25.94
2018-12-04T09:36:42.596Z,25.89
2018-12-04T09:39:11.659Z,25.94
2018-12-04T09:41:40.695Z,25.90
2018-12-04T09:44:09.768Z,25.92
2018-12-04T09:46:38.828Z,25.93
2018-12-04T09:49:08.135Z,25.98
2018-12-04T09:51:37.143Z,25.92
2018-12-04T09:54:06.169Z,25.90
2018-12-04T09:56:35.127Z,25.95
2018-12-04T09:59:04.138Z,25.94
2018-12-04T10:01:33.166Z,25.95
2018-12-04T10:04:02.403Z,25.96
2018-12-04T10:06:31.383Z,25.95
2018-12-04T10:09:00.383Z,25.86
2018-12-04T10:11:29.391Z,25.88
2018-12-04T10:13:58.576Z,25.96
2018-12-04T10:16:27.562Z,25.96
2018-12-04T10:18:56.527Z,25.96
2018-12-04T10:21:25.659Z,25.91
2018-12-04T10:23:54.714Z,25.92
2018-12-04T10:26:23.485Z,25.82
2018-12-04T10:28:52.465Z,25.87
2018-12-04T10:31:21.445Z,25.85
2018-12-04T10:33:50.571Z,25.91
2018-12-04T10:36:19.663Z,25.85
2018-12-04T10:38:48.638Z,25.88
2018-12-04T10:41:17.606Z,25.84
2018-12-04T10:43:46.836Z,25.68
2018-12-04T10:46:15.810Z,25.78
2018-12-04T10:48:44.840Z,25.89
2018-12-04T10:51:14.003Z,25.90
2018-12-04T10:53:43.152Z,25.88
2018-12-04T10:56:12.111Z,25.90
2018-12-04T10:58:41.118Z,25.96
2018-12-04T11:01:15.086Z,25.89
2018-12-04T11:03:44.196Z,25.93
2018-12-04T11:06:13.395Z,25.94
2018-12-04T11:08:42.507Z,25.98
2018-12-04T11:11:11.488Z,25.97
2018-12-04T11:13:40.587Z,25.99
2018-12-04T11:16:09.614Z,25.87
2018-12-04T11:18:38.723Z,25.82
2018-12-04T11:21:07.592Z,25.91
2018-12-04T11:23:36.628Z,25.96
2018-12-04T11:26:05.820Z,25.92
2018-12-04T11:28:34.963Z,25.88
2018-12-04T11:31:04.096Z,25.86
2018-12-04T11:33:32.859Z,25.78
2018-12-04T11:36:02.787Z,25.74
2018-12-04T11:38:31.901Z,25.78
2018-12-04T11:41:00.803Z,25.84
2018-12-04T11:43:29.807Z,25.83
2018-12-04T11:45:58.995Z,25.71
2018-12-04T11:48:28.048Z,25.64
2018-12-04T11:51:00.227Z,25.66
2018-12-04T11:53:28.137Z,25.66
2018-12-04T11:55:57.220Z,25.72
2018-12-04T11:58:26.220Z,25.74
2018-12-04T12:00:55.488Z,25.77
2018-12-04T12:03:24.620Z,25.74
2018-12-04T12:05:53.664Z,25.72
2018-12-04T12:08:22.821Z,25.71
2018-12-04T12:10:52.018Z,25.62
2018-12-04T12:13:21.042Z,25.62
2018-12-04T12:15:50.136Z,25.63
2018-12-04T12:18:19.176Z,25.72
2018-12-04T12:20:48.195Z,25.69
2018-12-04T12:23:17.233Z,25.70
2018-12-04T12:25:46.393Z,25.61
2018-12-04T12:28:15.492Z,25.57
2018-12-04T12:30:44.570Z,25.63
2018-12-04T12:33:13.681Z,25.61
2018-12-04T12:35:42.572Z,25.63
2018-12-04T12:38:11.568Z,25.68
2018-12-04T12:40:40.848Z,25.71
2018-12-04T12:43:09.965Z,25.74
2018-12-04T12:45:39.060Z,25.67
2018-12-04T12:48:08.155Z,25.68
2018-12-04T12:50:37.186Z,25.73
2018-12-04T12:53:06.137Z,25.77
2018-12-04T12:55:35.137Z,25.78
2018-12-04T12:58:04.148Z,25.79
2018-12-04T13:00:33.175Z,25.83
2018-12-04T13:03:02.183Z,25.79
2018-12-04T13:05:31.293Z,25.73
2018-12-04T13:08:00.288Z,25.80
2018-12-04T13:10:29.184Z,25.84
2018-12-04T13:12:58.292Z,25.85
2018-12-04T13:15:27.382Z,25.87
2018-12-04T13:17:56.386Z,25.88
2018-12-04T13:20:25.405Z,25.79
2018-12-04T13:22:54.489Z,25.70
2018-12-04T13:25:23.572Z,25.64
2018-12-04T13:27:52.580Z,25.65
2018-12-04T13:30:21.585Z,25.79
2018-12-04T13:32:50.659Z,25.74
2018-12-04T13:35:19.660Z,25.82
2018-12-04T13:37:48.672Z,25.78
2018-12-04T13:40:17.866Z,25.74
2018-12-04T13:42:47.156Z,25.77
2018-12-04T13:45:16.255Z,25.73
2018-12-04T13:47:45.428Z,25.72
2018-12-04T13:50:14.416Z,25.75
2018-12-04T13:52:43.581Z,25.72
2018-12-04T13:55:12.636Z,25.68
2018-12-04T13:57:41.483Z,25.72
2018-12-04T14:00:10.688Z,25.78
2018-12-04T14:02:39.706Z,25.73
2018-12-04T14:05:09.273Z,25.75
2018-12-04T14:07:38.066Z,25.73
2018-12-04T14:10:08.885Z,25.70
2018-12-04T14:12:38.178Z,25.63
2018-12-04T14:15:07.385Z,25.67
2018-12-04T14:17:36.548Z,25.70
2018-12-04T14:20:06.659Z,25.71
2018-12-04T14:22:35.927Z,25.72
2018-12-04T14:25:05.054Z,25.71
2018-12-04T14:27:34.268Z,25.65
2018-12-04T14:30:03.408Z,25.60
2018-12-04T14:32:32.568Z,25.61
2018-12-04T14:35:01.661Z,25.65
2018-12-04T14:37:30.698Z,25.68
2018-12-04T14:39:59.965Z,25.68
2018-12-04T14:42:29.056Z,25.64
2018-12-04T14:44:58.150Z,25.62
2018-12-04T14:47:27.279Z,25.55
2018-12-04T14:49:56.573Z,25.57
2018-12-04T14:52:25.543Z,25.58
2018-12-04T14:54:54.668Z,25.63
2018-12-04T14:57:23.750Z,25.65
2018-12-04T14:59:52.848Z,25.62
2018-12-04T15:02:21.822Z,25.60
2018-12-04T15:04:50.965Z,25.53
2018-12-04T15:07:20.005Z,25.51
2018-12-04T15:09:48.880Z,25.56
2018-12-04T15:12:17.992Z,25.56
2018-12-04T15:14:47.099Z,25.58
2018-12-04T15:17:16.219Z,25.62
2018-12-04T15:19:45.372Z,25.53
2018-12-04T15:22:14.612Z,25.49
2018-12-04T15:24:43.590Z,25.46
2018-12-04T15:27:12.901Z,25.52
2018-12-04T15:29:42.092Z,25.52
2018-12-04T15:32:11.343Z,25.54
2018-12-04T15:34:40.423Z,25.48
2018-12-04T15:37:09.487Z,25.46
2018-12-04T15:39:38.612Z,25.41
2018-12-04T15:42:07.823Z,25.41
2018-12-04T15:44:37.014Z,25.47
2018-12-04T15:47:06.179Z,25.49
2018-12-04T15:49:35.176Z,25.53
2018-12-04T15:52:04.316Z,25.48
2018-12-04T15:54:33.361Z,25.47
2018-12-04T15:57:02.411Z,25.42
2018-12-04T15:59:31.425Z,25.37
2018-12-04T16:02:00.444Z,25.42
2018-12-04T16:04:29.431Z,25.47
2018-12-04T16:06:58.640Z,25.49
2018-12-04T16:09:27.737Z,25.48
2018-12-04T16:11:56.741Z,25.49
2018-12-04T16:14:25.829Z,25.41
2018-12-04T16:16:55.030Z,25.40
2018-12-04T16:19:24.145Z,25.43
2018-12-04T16:21:53.387Z,25.41
2018-12-04T16:24:22.704Z,25.46
2018-12-04T16:26:52.054Z,25.47
2018-12-04T16:29:21.204Z,25.49
2018-12-04T16:31:50.439Z,25.45
2018-12-04T16:34:19.620Z,25.39
2018-12-04T16:36:48.816Z,25.51
2018-12-04T16:39:18.091Z,25.47
2018-12-04T16:41:47.103Z,25.50
2018-12-04T16:44:16.211Z,25.57
2018-12-04T16:46:45.509Z,25.51
2018-12-04T16:49:14.500Z,25.51
2018-12-04T16:51:43.708Z,25.50
2018-12-04T16:54:12.799Z,25.49
2018-12-04T16:56:42.013Z,25.55
2018-12-04T16:59:11.202Z,25.49
2018-12-04T17:01:40.211Z,25.51
2018-12-04T17:04:09.388Z,25.56
2018-12-04T17:06:38.509Z,25.51
2018-12-04T17:09:08.591Z,25.46
2018-12-04T17:11:37.699Z,25.46
2018-12-04T17:14:06.785Z,25.52
2018-12-04T17:16:36.137Z,25.52
2018-12-04T17:19:05.556Z,25.51
2018-12-04T17:21:34.712Z,25.45
2018-12-04T17:24:03.811Z,25.44
2018-12-04T17:26:32.909Z,25.42
2018-12-04T17:29:01.995Z,25.37
2018-12-04T17:31:30.972Z,25.49
2018-12-04T17:33:59.987Z,25.45
2018-12-04T17:36:28.964Z,25.38
2018-12-04T17:38:58.085Z,25.37
2018-12-04T17:41:27.075Z,25.47
2018-12-04T17:43:56.324Z,25.43
2018-12-04T17:46:25.360Z,25.54
2018-12-04T17:48:54.469Z,25.57
2018-12-04T17:51:23.665Z,25.59
2018-12-04T17:53:52.897Z,25.60
2018-12-04T17:56:22.085Z,25.54
2018-12-04T17:58:51.155Z,25.58
2018-12-04T18:01:20.217Z,25.51
2018-12-04T18:03:49.500Z,25.57
2018-12-04T18:06:18.801Z,25.54
2018-12-04T18:08:47.932Z,25.66
2018-12-04T18:11:17.052Z,25.71
2018-12-04T18:13:46.137Z,25.65
2018-12-04T18:16:15.252Z,25.63
2018-12-04T18:18:44.239Z,25.66
2018-12-04T18:21:13.526Z,25.68
2018-12-04T18:23:42.696Z,25.65
2018-12-04T18:26:11.723Z,25.57
2018-12-04T18:28:40.713Z,25.64
2018-12-04T18:31:09.829Z,25.68
2018-12-04T18:33:38.940Z,25.69
2018-12-04T18:36:07.985Z,25.74
2018-12-04T18:38:37.128Z,25.70
2018-12-04T18:41:06.293Z,25.74
2018-12-04T18:43:35.719Z,25.73
2018-12-04T18:46:04.895Z,25.72
2018-12-04T18:48:34.275Z,25.68
2018-12-04T18:51:03.236Z,25.73
2018-12-04T18:53:32.640Z,25.75
2018-12-04T18:56:03.029Z,25.75
2018-12-04T18:58:32.073Z,25.71
2018-12-04T19:01:01.161Z,25.68
2018-12-04T19:03:30.136Z,25.76
2018-12-04T19:05:59.240Z,25.82
2018-12-04T19:08:33.232Z,25.79
2018-12-04T19:11:02.350Z,25.79
2018-12-04T19:13:31.459Z,25.85
2018-12-04T19:16:00.540Z,25.83
2018-12-04T19:18:29.549Z,25.80
2018-12-04T19:20:58.624Z,25.72
2018-12-04T19:23:27.633Z,25.65
2018-12-04T19:25:56.728Z,25.67
2018-12-04T19:28:25.906Z,25.83
2018-12-04T19:30:54.909Z,25.96
2018-12-04T19:33:24.011Z,26.02
2018-12-04T19:35:53.020Z,26.03
2018-12-04T19:38:22.070Z,26.08
2018-12-04T19:40:51.199Z,26.04
2018-12-04T19:43:20.332Z,26.07
2018-12-04T19:45:49.556Z,26.07
2018-12-04T19:48:18.618Z,26.07
2018-12-04T19:50:47.676Z,26.06
2018-12-04T19:53:16.672Z,26.01
2018-12-04T19:55:45.649Z,26.05
2018-12-04T19:58:14.726Z,25.97
2018-12-04T20:00:43.745Z,25.96
2018-12-04T20:03:12.955Z,25.99
2018-12-04T20:05:41.953Z,25.93
2018-12-04T20:08:11.044Z,25.99
2018-12-04T20:10:40.199Z,25.96
2018-12-04T20:13:09.262Z,25.99
2018-12-04T20:15:38.304Z,25.96
2018-12-04T20:18:07.304Z,25.95
2018-12-04T20:20:36.321Z,25.94
2018-12-04T20:23:05.415Z,25.87
2018-12-04T20:25:34.404Z,25.82
2018-12-04T20:28:04.829Z,25.80
2018-12-04T20:30:34.240Z,25.87
2018-12-04T20:33:03.243Z,25.83
2018-12-04T20:35:32.191Z,25.88
2018-12-04T20:38:01.311Z,25.89
2018-12-04T20:40:31.684Z,25.90
2018-12-04T20:43:01.140Z,25.89
2018-12-04T20:45:30.124Z,25.82
2018-12-04T20:47:59.123Z,25.79
2018-12-04T20:50:28.216Z,25.78
2018-12-04T20:52:57.315Z,25.78
2018-12-04T20:55:26.324Z,25.79
2018-12-04T20:57:55.352Z,25.84
2018-12-04T21:00:24.295Z,25.79
2018-12-04T21:02:53.315Z,25.84
2018-12-04T21:05:22.302Z,25.83
2018-12-04T21:07:51.396Z,25.82
2018-12-04T21:10:20.500Z,25.77
2018-12-04T21:12:49.488Z,25.77
2018-12-04T21:15:18.441Z,25.78
2018-12-04T21:17:47.530Z,25.79
2018-12-04T21:20:16.522Z,25.78
2018-12-04T21:22:45.529Z,25.78
2018-12-04T21:25:14.619Z,25.77
2018-12-04T21:27:48.799Z,25.74
2018-12-04T21:30:22.657Z,25.76
2018-12-04T21:32:56.861Z,25.77
2018-12-04T21:35:31.032Z,25.79
2018-12-04T21:38:04.982Z,25.83
2018-12-04T21:40:39.034Z,25.79
2018-12-04T21:43:13.186Z,25.77
2018-12-04T21:45:47.190Z,25.75
2018-12-04T21:48:16.173Z,25.74
2018-12-04T21:50:45.144Z,25.75
2018-12-04T21:53:14.156Z,25.78
2018-12-04T21:55:43.215Z,25.77
2018-12-04T21:58:12.252Z,25.76
2018-12-04T22:00:41.240Z,25.74
2018-12-04T22:03:10.242Z,25.73
2018-12-04T22:05:39.284Z,25.74
2018-12-04T22:08:08.372Z,25.68
2018-12-04T22:10:37.475Z,25.70
2018-12-04T22:13:06.576Z,25.76
2018-12-04T22:15:35.592Z,25.73
2018-12-04T22:18:04.608Z,25.74
2018-12-04T22:20:33.863Z,25.76
2018-12-04T22:23:03.012Z,25.74
2018-12-04T22:25:32.041Z,25.71
2018-12-04T22:28:01.185Z,25.63
2018-12-04T22:30:30.296Z,25.73
2018-12-04T22:32:59.373Z,25.74
2018-12-04T22:35:28.488Z,25.75
2018-12-04T22:37:57.475Z,25.73
2018-12-04T22:40:26.563Z,25.75
2018-12-04T22:42:55.694Z,25.76
2018-12-04T22:45:26.040Z,25.71
2018-12-04T22:47:55.788Z,25.70
2018-12-04T22:50:24.809Z,25.73
2018-12-04T22:52:53.969Z,25.72
2018-12-04T22:55:23.410Z,25.67
2018-12-04T22:57:52.398Z,25.67
2018-12-04T23:00:36.357Z,25.71
2018-12-04T23:03:05.497Z,25.74
2018-12-04T23:05:34.648Z,25.75
2018-12-04T23:08:03.696Z,25.67
2018-12-04T23:10:32.715Z,25.65
2018-12-04T23:13:01.699Z,25.51
2018-12-04T23:15:30.800Z,25.63
2018-12-04T23:17:59.908Z,25.66
2018-12-04T23:20:28.924Z,25.72
2018-12-04T23:22:57.890Z,25.63
2018-12-04T23:25:26.984Z,25.64
2018-12-04T23:27:55.972Z,25.63
2018-12-04T23:30:25.024Z,25.57
2018-12-04T23:32:54.064Z,25.57
2018-12-04T23:35:23.179Z,25.57
2018-12-04T23:37:52.182Z,25.56
2018-12-04T23:40:21.147Z,25.57
2018-12-04T23:42:50.145Z,25.60
2018-12-04T23:45:19.242Z,25.66
2018-12-04T23:47:48.232Z,25.69
2018-12-04T23:50:17.226Z,25.64
2018-12-04T23:52:46.159Z,25.62
2018-12-04T23:55:15.155Z,25.64
2018-12-04T23:57:44.242Z,25.64
